sensor_id;sensor_type;location;lat;lon;timestamp;temperature;humidity
22996;DHT22;11664;49.774;8.650;2023-05-07T00:02:11;17.10;99.90
22996;DHT22;11664;49.774;8.650;2023-05-07T00:04:43;17.10;99.90
22996;DHT22;11664;49.774;8.650;2023-05-07T00:07:18;17.00;99.90
22996;DHT22;11664;49.774;8.650;2023-05-07T00:09:44;16.90;99.90
22996;DHT22;11664;49.774;8.650;2023-05-07T00:12:18;16.90;99.90
22996;DHT22;11664;49.774;8.650;2023-05-07T00:14:50;17.00;99.90
22996;DHT22;11664;49.774;8.650;2023-05-07T00:17:21;16.90;99.90
22996;DHT22;11664;49.774;8.650;2023-05-07T00:19:47;17.00;99.90
22996;DHT22;11664;49.774;8.650;2023-05-07T00:22:19;16.90;99.90
22996;DHT22;11664;49.774;8.650;2023-05-07T00:24:59;17.00;99.90
22996;DHT22;11664;49.774;8.650;2023-05-07T00:27:25;17.00;99.90
22996;DHT22;11664;49.774;8.650;2023-05-07T00:29:54;17.00;99.90
22996;DHT22;11664;49.774;8.650;2023-05-07T00:32:19;17.00;99.90
22996;DHT22;11664;49.774;8.650;2023-05-07T00:34:51;17.00;99.90
22996;DHT22;11664;49.774;8.650;2023-05-07T00:37:22;17.00;99.90
22996;DHT22;11664;49.774;8.650;2023-05-07T00:39:48;17.00;99.90
22996;DHT22;11664;49.774;8.650;2023-05-07T00:42:14;17.00;99.90
22996;DHT22;11664;49.774;8.650;2023-05-07T00:44:47;17.00;99.90
22996;DHT22;11664;49.774;8.650;2023-05-07T00:47:19;17.00;99.90
22996;DHT22;11664;49.774;8.650;2023-05-07T00:49:51;17.00;99.90
22996;DHT22;11664;49.774;8.650;2023-05-07T00:52:19;17.00;99.90
22996;DHT22;11664;49.774;8.650;2023-05-07T00:54:53;17.00;99.90
22996;DHT22;11664;49.774;8.650;2023-05-07T00:57:25;17.00;99.90
22996;DHT22;11664;49.774;8.650;2023-05-07T00:59:51;17.00;99.90
22996;DHT22;11664;49.774;8.650;2023-05-07T01:02:23;17.00;99.90
22996;DHT22;11664;49.774;8.650;2023-05-07T01:04:49;17.00;99.90
22996;DHT22;11664;49.774;8.650;2023-05-07T01:07:20;17.00;99.90
22996;DHT22;11664;49.774;8.650;2023-05-07T01:09:49;17.00;99.90
22996;DHT22;11664;49.774;8.650;2023-05-07T01:12:18;16.90;99.90
22996;DHT22;11664;49.774;8.650;2023-05-07T01:14:44;17.00;99.90
22996;DHT22;11664;49.774;8.650;2023-05-07T01:17:10;17.00;99.90
22996;DHT22;11664;49.774;8.650;2023-05-07T01:19:38;16.90;99.90
22996;DHT22;11664;49.774;8.650;2023-05-07T01:22:09;16.90;99.90
22996;DHT22;11664;49.774;8.650;2023-05-07T01:24:48;16.90;99.90
22996;DHT22;11664;49.774;8.650;2023-05-07T01:27:17;16.80;99.90
22996;DHT22;11664;49.774;8.650;2023-05-07T01:29:43;16.80;99.90
22996;DHT22;11664;49.774;8.650;2023-05-07T01:32:38;16.70;99.90
22996;DHT22;11664;49.774;8.650;2023-05-07T01:35:17;16.70;99.90
22996;DHT22;11664;49.774;8.650;2023-05-07T01:37:53;16.70;99.90
22996;DHT22;11664;49.774;8.650;2023-05-07T01:40:23;16.60;99.90
22996;DHT22;11664;49.774;8.650;2023-05-07T01:42:50;16.60;99.90
22996;DHT22;11664;49.774;8.650;2023-05-07T01:45:22;16.60;99.90
22996;DHT22;11664;49.774;8.650;2023-05-07T01:47:48;16.50;99.90
22996;DHT22;11664;49.774;8.650;2023-05-07T01:50:16;16.50;99.90
22996;DHT22;11664;49.774;8.650;2023-05-07T01:52:49;16.50;99.90
22996;DHT22;11664;49.774;8.650;2023-05-07T01:55:49;16.50;99.90
22996;DHT22;11664;49.774;8.650;2023-05-07T01:58:14;16.40;99.90
22996;DHT22;11664;49.774;8.650;2023-05-07T02:00:49;16.30;99.90
22996;DHT22;11664;49.774;8.650;2023-05-07T02:03:14;16.20;99.90
22996;DHT22;11664;49.774;8.650;2023-05-07T02:05:40;16.10;99.90
22996;DHT22;11664;49.774;8.650;2023-05-07T02:08:15;16.00;99.90
22996;DHT22;11664;49.774;8.650;2023-05-07T02:10:50;15.90;99.90
22996;DHT22;11664;49.774;8.650;2023-05-07T02:13:19;15.90;99.90
22996;DHT22;11664;49.774;8.650;2023-05-07T02:15:47;15.90;99.90
22996;DHT22;11664;49.774;8.650;2023-05-07T02:18:16;15.90;99.90
22996;DHT22;11664;49.774;8.650;2023-05-07T02:20:47;15.90;99.90
22996;DHT22;11664;49.774;8.650;2023-05-07T02:23:16;15.90;99.90
22996;DHT22;11664;49.774;8.650;2023-05-07T02:25:48;15.90;99.90
22996;DHT22;11664;49.774;8.650;2023-05-07T02:31:35;16.00;99.90
22996;DHT22;11664;49.774;8.650;2023-05-07T02:34:06;16.00;99.90
22996;DHT22;11664;49.774;8.650;2023-05-07T02:36:38;16.00;99.90
22996;DHT22;11664;49.774;8.650;2023-05-07T02:39:16;16.00;99.90
22996;DHT22;11664;49.774;8.650;2023-05-07T02:41:48;16.00;99.90
22996;DHT22;11664;49.774;8.650;2023-05-07T02:44:20;16.10;99.90
22996;DHT22;11664;49.774;8.650;2023-05-07T02:46:45;16.10;99.90
22996;DHT22;11664;49.774;8.650;2023-05-07T02:49:26;16.10;99.90
22996;DHT22;11664;49.774;8.650;2023-05-07T02:51:58;16.10;99.90
22996;DHT22;11664;49.774;8.650;2023-05-07T02:54:35;16.00;99.90
22996;DHT22;11664;49.774;8.650;2023-05-07T02:57:01;15.90;99.90
22996;DHT22;11664;49.774;8.650;2023-05-07T02:59:27;15.90;99.90
22996;DHT22;11664;49.774;8.650;2023-05-07T03:01:53;15.80;99.90
22996;DHT22;11664;49.774;8.650;2023-05-07T03:04:18;15.80;99.90
22996;DHT22;11664;49.774;8.650;2023-05-07T03:06:50;15.70;99.90
22996;DHT22;11664;49.774;8.650;2023-05-07T03:09:15;15.60;99.90
22996;DHT22;11664;49.774;8.650;2023-05-07T03:11:41;15.60;99.90
22996;DHT22;11664;49.774;8.650;2023-05-07T03:14:07;15.50;99.90
22996;DHT22;11664;49.774;8.650;2023-05-07T03:16:35;15.50;99.90
22996;DHT22;11664;49.774;8.650;2023-05-07T03:19:01;15.40;99.90
22996;DHT22;11664;49.774;8.650;2023-05-07T03:21:30;15.40;99.90
22996;DHT22;11664;49.774;8.650;2023-05-07T03:23:59;15.50;99.90
22996;DHT22;11664;49.774;8.650;2023-05-07T03:26:27;15.50;99.90
22996;DHT22;11664;49.774;8.650;2023-05-07T03:29:05;15.60;99.90
22996;DHT22;11664;49.774;8.650;2023-05-07T03:31:46;15.70;99.90
22996;DHT22;11664;49.774;8.650;2023-05-07T03:34:12;15.80;99.90
22996;DHT22;11664;49.774;8.650;2023-05-07T03:36:38;15.90;99.90
22996;DHT22;11664;49.774;8.650;2023-05-07T03:39:03;16.00;99.90
22996;DHT22;11664;49.774;8.650;2023-05-07T03:41:29;16.00;99.90
22996;DHT22;11664;49.774;8.650;2023-05-07T03:44:13;16.10;99.90
22996;DHT22;11664;49.774;8.650;2023-05-07T03:46:45;16.20;99.90
22996;DHT22;11664;49.774;8.650;2023-05-07T03:49:36;16.20;99.90
22996;DHT22;11664;49.774;8.650;2023-05-07T03:52:05;16.30;99.90
22996;DHT22;11664;49.774;8.650;2023-05-07T03:54:31;16.30;99.90
22996;DHT22;11664;49.774;8.650;2023-05-07T03:57:00;16.30;99.90
22996;DHT22;11664;49.774;8.650;2023-05-07T03:59:37;16.30;99.90
22996;DHT22;11664;49.774;8.650;2023-05-07T04:02:03;16.40;99.90
22996;DHT22;11664;49.774;8.650;2023-05-07T04:04:32;16.40;99.90
22996;DHT22;11664;49.774;8.650;2023-05-07T04:07:13;16.50;99.90
22996;DHT22;11664;49.774;8.650;2023-05-07T04:09:38;16.60;99.90
22996;DHT22;11664;49.774;8.650;2023-05-07T04:12:19;16.70;99.90
22996;DHT22;11664;49.774;8.650;2023-05-07T04:14:45;16.70;99.90
22996;DHT22;11664;49.774;8.650;2023-05-07T04:17:10;16.80;99.90
22996;DHT22;11664;49.774;8.650;2023-05-07T04:19:36;16.80;99.90
22996;DHT22;11664;49.774;8.650;2023-05-07T04:22:01;16.80;99.90
22996;DHT22;11664;49.774;8.650;2023-05-07T04:24:33;16.80;99.90
22996;DHT22;11664;49.774;8.650;2023-05-07T04:27:02;16.90;99.90
22996;DHT22;11664;49.774;8.650;2023-05-07T04:29:27;17.00;99.90
22996;DHT22;11664;49.774;8.650;2023-05-07T04:32:00;17.00;99.90
22996;DHT22;11664;49.774;8.650;2023-05-07T04:34:28;17.00;99.90
22996;DHT22;11664;49.774;8.650;2023-05-07T04:36:54;17.00;99.90
22996;DHT22;11664;49.774;8.650;2023-05-07T04:39:19;17.00;99.90
22996;DHT22;11664;49.774;8.650;2023-05-07T04:41:45;17.00;99.90
22996;DHT22;11664;49.774;8.650;2023-05-07T04:44:13;17.00;99.90
22996;DHT22;11664;49.774;8.650;2023-05-07T04:46:45;17.00;99.90
22996;DHT22;11664;49.774;8.650;2023-05-07T04:49:16;17.00;99.90
22996;DHT22;11664;49.774;8.650;2023-05-07T04:51:42;17.00;99.90
22996;DHT22;11664;49.774;8.650;2023-05-07T04:54:14;17.00;99.90
22996;DHT22;11664;49.774;8.650;2023-05-07T04:56:42;17.10;99.90
22996;DHT22;11664;49.774;8.650;2023-05-07T04:59:08;17.10;99.90
22996;DHT22;11664;49.774;8.650;2023-05-07T05:01:43;17.00;99.90
22996;DHT22;11664;49.774;8.650;2023-05-07T05:04:15;17.00;99.90
22996;DHT22;11664;49.774;8.650;2023-05-07T05:06:43;17.00;99.90
22996;DHT22;11664;49.774;8.650;2023-05-07T05:09:09;17.00;99.90
22996;DHT22;11664;49.774;8.650;2023-05-07T05:11:34;17.10;99.90
22996;DHT22;11664;49.774;8.650;2023-05-07T05:14:12;17.10;99.90
22996;DHT22;11664;49.774;8.650;2023-05-07T05:16:44;17.10;99.90
22996;DHT22;11664;49.774;8.650;2023-05-07T05:19:13;17.10;99.90
22996;DHT22;11664;49.774;8.650;2023-05-07T05:21:38;17.10;99.90
22996;DHT22;11664;49.774;8.650;2023-05-07T05:24:04;17.10;99.90
22996;DHT22;11664;49.774;8.650;2023-05-07T05:26:35;17.10;99.90
22996;DHT22;11664;49.774;8.650;2023-05-07T05:29:07;17.20;99.90
22996;DHT22;11664;49.774;8.650;2023-05-07T05:31:33;17.30;99.90
22996;DHT22;11664;49.774;8.650;2023-05-07T05:34:04;17.30;99.90
22996;DHT22;11664;49.774;8.650;2023-05-07T05:36:39;17.40;99.90
22996;DHT22;11664;49.774;8.650;2023-05-07T05:39:11;17.40;99.90
22996;DHT22;11664;49.774;8.650;2023-05-07T05:41:43;17.50;99.90
22996;DHT22;11664;49.774;8.650;2023-05-07T05:44:14;17.60;99.90
22996;DHT22;11664;49.774;8.650;2023-05-07T05:46:40;17.60;99.90
22996;DHT22;11664;49.774;8.650;2023-05-07T05:49:11;17.70;99.90
22996;DHT22;11664;49.774;8.650;2023-05-07T05:51:43;17.60;99.90
22996;DHT22;11664;49.774;8.650;2023-05-07T05:54:11;17.50;99.90
22996;DHT22;11664;49.774;8.650;2023-05-07T05:56:46;17.50;99.90
22996;DHT22;11664;49.774;8.650;2023-05-07T05:59:15;17.50;99.90
22996;DHT22;11664;49.774;8.650;2023-05-07T06:01:44;17.60;99.90
22996;DHT22;11664;49.774;8.650;2023-05-07T06:04:11;17.60;99.90
22996;DHT22;11664;49.774;8.650;2023-05-07T06:06:37;17.70;99.90
22996;DHT22;11664;49.774;8.650;2023-05-07T06:09:15;17.70;99.90
22996;DHT22;11664;49.774;8.650;2023-05-07T06:11:40;17.70;99.90
22996;DHT22;11664;49.774;8.650;2023-05-07T06:14:09;17.80;99.90
22996;DHT22;11664;49.774;8.650;2023-05-07T06:16:44;17.80;99.90
22996;DHT22;11664;49.774;8.650;2023-05-07T06:19:09;17.80;99.90
22996;DHT22;11664;49.774;8.650;2023-05-07T06:21:41;17.80;99.90
22996;DHT22;11664;49.774;8.650;2023-05-07T06:24:10;17.90;99.90
22996;DHT22;11664;49.774;8.650;2023-05-07T06:26:41;18.00;99.90
22996;DHT22;11664;49.774;8.650;2023-05-07T06:29:13;18.00;99.90
22996;DHT22;11664;49.774;8.650;2023-05-07T06:31:42;18.00;99.90
22996;DHT22;11664;49.774;8.650;2023-05-07T06:34:07;18.00;99.90
22996;DHT22;11664;49.774;8.650;2023-05-07T06:36:36;18.00;99.90
22996;DHT22;11664;49.774;8.650;2023-05-07T06:39:10;18.00;99.90
22996;DHT22;11664;49.774;8.650;2023-05-07T06:41:42;18.10;99.90
22996;DHT22;11664;49.774;8.650;2023-05-07T06:44:14;18.10;99.90
22996;DHT22;11664;49.774;8.650;2023-05-07T06:46:46;18.20;99.90
22996;DHT22;11664;49.774;8.650;2023-05-07T06:49:24;18.20;99.90
22996;DHT22;11664;49.774;8.650;2023-05-07T06:51:52;18.20;99.90
22996;DHT22;11664;49.774;8.650;2023-05-07T06:54:18;18.20;99.90
22996;DHT22;11664;49.774;8.650;2023-05-07T06:56:46;18.20;99.90
22996;DHT22;11664;49.774;8.650;2023-05-07T06:59:15;18.20;99.90
22996;DHT22;11664;49.774;8.650;2023-05-07T07:01:41;18.20;99.90
22996;DHT22;11664;49.774;8.650;2023-05-07T07:04:10;18.30;99.90
22996;DHT22;11664;49.774;8.650;2023-05-07T07:06:36;18.40;99.90
22996;DHT22;11664;49.774;8.650;2023-05-07T07:09:02;18.40;99.90
22996;DHT22;11664;49.774;8.650;2023-05-07T07:11:30;18.50;99.90
22996;DHT22;11664;49.774;8.650;2023-05-07T07:13:56;18.60;99.90
22996;DHT22;11664;49.774;8.650;2023-05-07T07:16:25;18.70;99.90
22996;DHT22;11664;49.774;8.650;2023-05-07T07:18:51;18.80;99.90
22996;DHT22;11664;49.774;8.650;2023-05-07T07:21:16;18.90;99.90
22996;DHT22;11664;49.774;8.650;2023-05-07T07:23:42;19.00;99.90
22996;DHT22;11664;49.774;8.650;2023-05-07T07:26:10;19.10;99.90
22996;DHT22;11664;49.774;8.650;2023-05-07T07:31:31;19.20;99.90
22996;DHT22;11664;49.774;8.650;2023-05-07T07:34:09;19.10;99.90
22996;DHT22;11664;49.774;8.650;2023-05-07T07:39:30;19.10;99.90
22996;DHT22;11664;49.774;8.650;2023-05-07T07:42:02;19.20;99.90
22996;DHT22;11664;49.774;8.650;2023-05-07T07:44:34;19.20;99.90
22996;DHT22;11664;49.774;8.650;2023-05-07T07:47:06;19.20;99.90
22996;DHT22;11664;49.774;8.650;2023-05-07T07:49:32;19.30;99.90
22996;DHT22;11664;49.774;8.650;2023-05-07T07:52:00;19.30;99.90
22996;DHT22;11664;49.774;8.650;2023-05-07T07:54:28;19.30;99.90
22996;DHT22;11664;49.774;8.650;2023-05-07T07:56:57;19.30;99.90
22996;DHT22;11664;49.774;8.650;2023-05-07T07:59:29;19.30;99.90
22996;DHT22;11664;49.774;8.650;2023-05-07T08:01:57;19.30;99.90
22996;DHT22;11664;49.774;8.650;2023-05-07T08:04:29;19.30;99.90
22996;DHT22;11664;49.774;8.650;2023-05-07T08:07:04;19.30;99.90
22996;DHT22;11664;49.774;8.650;2023-05-07T08:09:39;19.30;99.90
22996;DHT22;11664;49.774;8.650;2023-05-07T08:12:34;19.30;99.90
22996;DHT22;11664;49.774;8.650;2023-05-07T08:15:09;19.30;99.90
22996;DHT22;11664;49.774;8.650;2023-05-07T08:17:41;19.30;99.90
22996;DHT22;11664;49.774;8.650;2023-05-07T08:20:07;19.30;99.90
22996;DHT22;11664;49.774;8.650;2023-05-07T08:22:39;19.40;99.90
22996;DHT22;11664;49.774;8.650;2023-05-07T08:25:05;19.40;99.90
22996;DHT22;11664;49.774;8.650;2023-05-07T08:27:37;19.40;99.90
22996;DHT22;11664;49.774;8.650;2023-05-07T08:30:03;19.40;99.90
22996;DHT22;11664;49.774;8.650;2023-05-07T08:32:32;19.50;99.90
22996;DHT22;11664;49.774;8.650;2023-05-07T08:35:04;19.60;99.90
22996;DHT22;11664;49.774;8.650;2023-05-07T08:37:36;19.70;99.90
22996;DHT22;11664;49.774;8.650;2023-05-07T08:40:02;19.70;99.90
22996;DHT22;11664;49.774;8.650;2023-05-07T08:42:35;19.80;99.90
22996;DHT22;11664;49.774;8.650;2023-05-07T08:45:09;19.90;99.90
22996;DHT22;11664;49.774;8.650;2023-05-07T08:47:47;19.90;99.90
22996;DHT22;11664;49.774;8.650;2023-05-07T08:50:12;20.00;99.90
22996;DHT22;11664;49.774;8.650;2023-05-07T08:52:47;20.00;99.90
22996;DHT22;11664;49.774;8.650;2023-05-07T08:55:13;20.00;99.90
22996;DHT22;11664;49.774;8.650;2023-05-07T08:57:43;20.10;99.90
22996;DHT22;11664;49.774;8.650;2023-05-07T09:00:09;20.20;99.90
22996;DHT22;11664;49.774;8.650;2023-05-07T09:02:53;20.30;99.90
22996;DHT22;11664;49.774;8.650;2023-05-07T09:05:19;20.40;99.90
22996;DHT22;11664;49.774;8.650;2023-05-07T09:07:54;20.50;99.90
22996;DHT22;11664;49.774;8.650;2023-05-07T09:10:21;20.60;99.90
22996;DHT22;11664;49.774;8.650;2023-05-07T09:12:50;20.70;99.90
22996;DHT22;11664;49.774;8.650;2023-05-07T09:15:19;20.80;99.90
22996;DHT22;11664;49.774;8.650;2023-05-07T09:17:45;20.90;99.90
22996;DHT22;11664;49.774;8.650;2023-05-07T09:20:11;21.00;99.90
22996;DHT22;11664;49.774;8.650;2023-05-07T09:22:42;21.20;99.90
22996;DHT22;11664;49.774;8.650;2023-05-07T09:25:15;21.40;99.90
22996;DHT22;11664;49.774;8.650;2023-05-07T09:27:52;21.50;99.90
22996;DHT22;11664;49.774;8.650;2023-05-07T09:30:18;21.70;99.90
22996;DHT22;11664;49.774;8.650;2023-05-07T09:32:43;21.90;99.90
22996;DHT22;11664;49.774;8.650;2023-05-07T09:35:18;22.10;99.90
22996;DHT22;11664;49.774;8.650;2023-05-07T09:37:47;22.20;99.90
22996;DHT22;11664;49.774;8.650;2023-05-07T09:40:34;22.30;99.90
22996;DHT22;11664;49.774;8.650;2023-05-07T09:43:13;22.50;99.90
22996;DHT22;11664;49.774;8.650;2023-05-07T09:45:39;22.50;99.90
22996;DHT22;11664;49.774;8.650;2023-05-07T09:48:06;22.40;99.90
22996;DHT22;11664;49.774;8.650;2023-05-07T09:50:51;22.40;99.90
22996;DHT22;11664;49.774;8.650;2023-05-07T09:55:45;22.30;99.90
22996;DHT22;11664;49.774;8.650;2023-05-07T09:58:12;22.30;99.90
22996;DHT22;11664;49.774;8.650;2023-05-07T10:00:39;22.20;99.90
22996;DHT22;11664;49.774;8.650;2023-05-07T10:03:08;22.20;99.90
22996;DHT22;11664;49.774;8.650;2023-05-07T10:05:35;22.20;99.90
22996;DHT22;11664;49.774;8.650;2023-05-07T10:08:01;22.10;99.90
22996;DHT22;11664;49.774;8.650;2023-05-07T10:10:27;22.20;99.90
22996;DHT22;11664;49.774;8.650;2023-05-07T10:12:54;22.40;99.90
22996;DHT22;11664;49.774;8.650;2023-05-07T10:15:20;22.40;99.90
22996;DHT22;11664;49.774;8.650;2023-05-07T10:17:46;22.30;99.90
22996;DHT22;11664;49.774;8.650;2023-05-07T10:20:13;22.40;99.90
22996;DHT22;11664;49.774;8.650;2023-05-07T10:22:43;22.50;99.90
22996;DHT22;11664;49.774;8.650;2023-05-07T10:25:21;22.50;99.90
22996;DHT22;11664;49.774;8.650;2023-05-07T10:27:48;22.30;99.90
22996;DHT22;11664;49.774;8.650;2023-05-07T10:30:33;22.10;99.90
22996;DHT22;11664;49.774;8.650;2023-05-07T10:33:03;22.10;99.90
22996;DHT22;11664;49.774;8.650;2023-05-07T10:35:40;21.90;99.90
22996;DHT22;11664;49.774;8.650;2023-05-07T10:38:06;21.80;99.90
22996;DHT22;11664;49.774;8.650;2023-05-07T10:40:32;21.90;99.90
22996;DHT22;11664;49.774;8.650;2023-05-07T10:43:00;21.90;99.90
22996;DHT22;11664;49.774;8.650;2023-05-07T10:45:26;22.00;99.90
22996;DHT22;11664;49.774;8.650;2023-05-07T10:48:14;22.20;99.90
22996;DHT22;11664;49.774;8.650;2023-05-07T10:50:41;22.30;99.90
22996;DHT22;11664;49.774;8.650;2023-05-07T10:56:23;22.70;99.90
22996;DHT22;11664;49.774;8.650;2023-05-07T10:58:37;22.90;99.90
22996;DHT22;11664;49.774;8.650;2023-05-07T11:01:03;23.10;99.90
22996;DHT22;11664;49.774;8.650;2023-05-07T11:03:29;23.10;99.90
22996;DHT22;11664;49.774;8.650;2023-05-07T11:06:15;23.40;99.90
22996;DHT22;11664;49.774;8.650;2023-05-07T11:08:57;23.80;99.90
22996;DHT22;11664;49.774;8.650;2023-05-07T11:11:46;24.10;99.90
22996;DHT22;11664;49.774;8.650;2023-05-07T11:14:14;24.60;99.90
22996;DHT22;11664;49.774;8.650;2023-05-07T11:16:41;25.00;99.90
22996;DHT22;11664;49.774;8.650;2023-05-07T11:19:06;25.30;99.90
22996;DHT22;11664;49.774;8.650;2023-05-07T11:21:40;25.00;99.90
22996;DHT22;11664;49.774;8.650;2023-05-07T11:24:07;24.70;99.90
22996;DHT22;11664;49.774;8.650;2023-05-07T11:26:43;24.40;99.90
22996;DHT22;11664;49.774;8.650;2023-05-07T11:29:20;24.50;99.90
22996;DHT22;11664;49.774;8.650;2023-05-07T11:31:53;24.60;99.90
22996;DHT22;11664;49.774;8.650;2023-05-07T11:34:23;24.90;99.90
22996;DHT22;11664;49.774;8.650;2023-05-07T11:36:50;25.00;99.90
22996;DHT22;11664;49.774;8.650;2023-05-07T11:39:30;25.10;99.90
22996;DHT22;11664;49.774;8.650;2023-05-07T11:42:01;25.10;99.90
22996;DHT22;11664;49.774;8.650;2023-05-07T11:44:44;25.20;99.90
22996;DHT22;11664;49.774;8.650;2023-05-07T11:47:12;25.20;99.90
22996;DHT22;11664;49.774;8.650;2023-05-07T11:49:42;25.30;99.90
22996;DHT22;11664;49.774;8.650;2023-05-07T11:52:08;25.60;99.90
22996;DHT22;11664;49.774;8.650;2023-05-07T11:54:37;25.70;99.90
22996;DHT22;11664;49.774;8.650;2023-05-07T11:57:03;26.00;99.90
22996;DHT22;11664;49.774;8.650;2023-05-07T11:59:28;26.40;99.90
22996;DHT22;11664;49.774;8.650;2023-05-07T12:01:57;26.50;99.90
22996;DHT22;11664;49.774;8.650;2023-05-07T12:04:24;26.70;99.50
22996;DHT22;11664;49.774;8.650;2023-05-07T12:06:54;26.80;99.90
22996;DHT22;11664;49.774;8.650;2023-05-07T12:09:21;27.10;99.70
22996;DHT22;11664;49.774;8.650;2023-05-07T12:11:46;27.30;98.10
22996;DHT22;11664;49.774;8.650;2023-05-07T12:14:12;27.50;98.40
22996;DHT22;11664;49.774;8.650;2023-05-07T12:16:39;27.90;97.40
22996;DHT22;11664;49.774;8.650;2023-05-07T12:19:06;28.20;98.80
22996;DHT22;11664;49.774;8.650;2023-05-07T12:21:33;28.00;96.90
22996;DHT22;11664;49.774;8.650;2023-05-07T12:23:59;27.90;96.40
22996;DHT22;11664;49.774;8.650;2023-05-07T12:26:26;27.50;95.50
22996;DHT22;11664;49.774;8.650;2023-05-07T12:28:51;26.90;94.50
22996;DHT22;11664;49.774;8.650;2023-05-07T12:31:17;26.60;96.70
22996;DHT22;11664;49.774;8.650;2023-05-07T12:33:43;26.40;97.50
22996;DHT22;11664;49.774;8.650;2023-05-07T12:36:12;26.50;98.20
22996;DHT22;11664;49.774;8.650;2023-05-07T12:38:38;26.80;97.90
22996;DHT22;11664;49.774;8.650;2023-05-07T12:41:06;26.60;95.00
22996;DHT22;11664;49.774;8.650;2023-05-07T12:43:32;26.20;96.50
22996;DHT22;11664;49.774;8.650;2023-05-07T12:46:01;25.90;96.20
22996;DHT22;11664;49.774;8.650;2023-05-07T12:48:27;25.80;95.80
22996;DHT22;11664;49.774;8.650;2023-05-07T12:50:54;26.00;97.50
22996;DHT22;11664;49.774;8.650;2023-05-07T12:53:21;26.60;96.90
22996;DHT22;11664;49.774;8.650;2023-05-07T12:55:49;27.40;96.80
22996;DHT22;11664;49.774;8.650;2023-05-07T13:00:44;28.10;94.70
22996;DHT22;11664;49.774;8.650;2023-05-07T13:03:11;28.00;93.00
22996;DHT22;11664;49.774;8.650;2023-05-07T13:05:37;27.90;93.70
22996;DHT22;11664;49.774;8.650;2023-05-07T13:08:03;27.80;94.10
22996;DHT22;11664;49.774;8.650;2023-05-07T13:10:29;27.70;94.30
22996;DHT22;11664;49.774;8.650;2023-05-07T13:12:55;27.50;94.60
22996;DHT22;11664;49.774;8.650;2023-05-07T13:15:21;27.50;94.10
22996;DHT22;11664;49.774;8.650;2023-05-07T13:17:47;27.30;94.20
22996;DHT22;11664;49.774;8.650;2023-05-07T13:20:12;27.00;93.00
22996;DHT22;11664;49.774;8.650;2023-05-07T13:22:38;26.60;92.50
22996;DHT22;11664;49.774;8.650;2023-05-07T13:25:04;26.30;93.40
22996;DHT22;11664;49.774;8.650;2023-05-07T13:27:30;26.00;94.00
22996;DHT22;11664;49.774;8.650;2023-05-07T13:29:56;26.00;94.70
22996;DHT22;11664;49.774;8.650;2023-05-07T13:32:22;26.00;96.00
22996;DHT22;11664;49.774;8.650;2023-05-07T13:34:47;25.90;95.10
22996;DHT22;11664;49.774;8.650;2023-05-07T13:37:13;26.00;96.10
22996;DHT22;11664;49.774;8.650;2023-05-07T13:39:38;25.80;95.60
22996;DHT22;11664;49.774;8.650;2023-05-07T13:42:04;25.80;95.50
22996;DHT22;11664;49.774;8.650;2023-05-07T13:44:30;25.80;95.40
22996;DHT22;11664;49.774;8.650;2023-05-07T13:46:55;25.70;94.20
22996;DHT22;11664;49.774;8.650;2023-05-07T13:49:21;25.70;94.50
22996;DHT22;11664;49.774;8.650;2023-05-07T13:51:46;25.70;96.90
22996;DHT22;11664;49.774;8.650;2023-05-07T13:54:12;25.60;96.70
22996;DHT22;11664;49.774;8.650;2023-05-07T13:56:37;25.60;95.30
22996;DHT22;11664;49.774;8.650;2023-05-07T13:59:03;25.30;95.10
22996;DHT22;11664;49.774;8.650;2023-05-07T14:01:28;25.20;95.60
22996;DHT22;11664;49.774;8.650;2023-05-07T14:03:55;25.00;95.70
22996;DHT22;11664;49.774;8.650;2023-05-07T14:06:20;25.00;95.40
22996;DHT22;11664;49.774;8.650;2023-05-07T14:08:47;24.90;96.00
22996;DHT22;11664;49.774;8.650;2023-05-07T14:11:12;24.90;96.00
22996;DHT22;11664;49.774;8.650;2023-05-07T14:13:38;24.70;95.80
22996;DHT22;11664;49.774;8.650;2023-05-07T14:16:04;24.50;95.80
22996;DHT22;11664;49.774;8.650;2023-05-07T14:18:29;24.40;96.50
22996;DHT22;11664;49.774;8.650;2023-05-07T14:20:55;24.30;96.00
22996;DHT22;11664;49.774;8.650;2023-05-07T14:23:20;24.30;96.50
22996;DHT22;11664;49.774;8.650;2023-05-07T14:25:54;24.20;95.90
22996;DHT22;11664;49.774;8.650;2023-05-07T14:28:20;24.10;95.90
22996;DHT22;11664;49.774;8.650;2023-05-07T14:30:46;24.10;97.00
22996;DHT22;11664;49.774;8.650;2023-05-07T14:33:12;24.00;97.10
22996;DHT22;11664;49.774;8.650;2023-05-07T14:35:37;23.90;97.30
22996;DHT22;11664;49.774;8.650;2023-05-07T14:38:03;23.90;97.10
22996;DHT22;11664;49.774;8.650;2023-05-07T14:40:29;23.80;97.70
22996;DHT22;11664;49.774;8.650;2023-05-07T14:42:54;23.70;97.60
22996;DHT22;11664;49.774;8.650;2023-05-07T14:45:21;23.60;97.30
22996;DHT22;11664;49.774;8.650;2023-05-07T14:47:46;23.50;97.80
22996;DHT22;11664;49.774;8.650;2023-05-07T14:50:15;23.40;97.80
22996;DHT22;11664;49.774;8.650;2023-05-07T14:52:40;23.40;98.00
22996;DHT22;11664;49.774;8.650;2023-05-07T14:55:06;23.30;98.00
22996;DHT22;11664;49.774;8.650;2023-05-07T14:57:31;23.20;98.80
22996;DHT22;11664;49.774;8.650;2023-05-07T15:00:01;23.20;99.60
22996;DHT22;11664;49.774;8.650;2023-05-07T15:02:26;23.10;99.70
22996;DHT22;11664;49.774;8.650;2023-05-07T15:04:52;23.00;99.90
22996;DHT22;11664;49.774;8.650;2023-05-07T15:07:18;22.90;99.70
22996;DHT22;11664;49.774;8.650;2023-05-07T15:09:44;22.80;99.20
22996;DHT22;11664;49.774;8.650;2023-05-07T15:12:10;22.70;99.10
22996;DHT22;11664;49.774;8.650;2023-05-07T15:14:39;22.60;99.90
22996;DHT22;11664;49.774;8.650;2023-05-07T15:17:05;22.50;99.90
22996;DHT22;11664;49.774;8.650;2023-05-07T15:19:32;22.40;99.90
22996;DHT22;11664;49.774;8.650;2023-05-07T15:21:58;22.30;99.90
22996;DHT22;11664;49.774;8.650;2023-05-07T15:24:25;22.30;99.90
22996;DHT22;11664;49.774;8.650;2023-05-07T15:26:51;22.20;99.90
22996;DHT22;11664;49.774;8.650;2023-05-07T15:29:17;22.10;99.90
22996;DHT22;11664;49.774;8.650;2023-05-07T15:31:43;22.00;99.90
22996;DHT22;11664;49.774;8.650;2023-05-07T15:34:08;22.00;99.90
22996;DHT22;11664;49.774;8.650;2023-05-07T15:36:34;21.80;99.90
22996;DHT22;11664;49.774;8.650;2023-05-07T15:39:00;21.40;99.90
22996;DHT22;11664;49.774;8.650;2023-05-07T15:41:27;20.70;99.90
22996;DHT22;11664;49.774;8.650;2023-05-07T15:43:53;20.10;99.90
22996;DHT22;11664;49.774;8.650;2023-05-07T15:46:20;19.40;99.90
22996;DHT22;11664;49.774;8.650;2023-05-07T15:48:46;18.90;99.90
22996;DHT22;11664;49.774;8.650;2023-05-07T15:51:12;18.50;99.90
22996;DHT22;11664;49.774;8.650;2023-05-07T15:53:38;18.10;99.90
22996;DHT22;11664;49.774;8.650;2023-05-07T15:56:05;17.70;99.90
22996;DHT22;11664;49.774;8.650;2023-05-07T15:58:31;17.50;99.90
22996;DHT22;11664;49.774;8.650;2023-05-07T16:00:57;17.30;99.90